Flight Track Log - Related Links

Times and Time Zones

All times are in EDT time to prevent confusion due to time zone crossing. See the N775NC flight status page for this flight to view local times or setup timezone preferences in your user account.

Time Position Orientation Groundspeed Altitude Reporting Facility
EDT Latitude Longitude Course Direction KTS MPH feet Rate Location/Type
Sat 12:41:35 PM 33.6167 -84.5167 97° East 238 274 3,900  Level Atlanta TRACON
Sat 12:42:35 PM 33.5667 -84.5833 228° Southwest 243 280 7,200 2,486 Climbing Atlanta TRACON
Sat 12:43:55 PM 33.4822 -84.5742 175° South 278 320 9,700 1,714 Climbing Atlanta Center
Sat 12:44:00 PM 33.3794 -83.8571 129° Southeast  Level Estimated
Sat 12:44:55 PM 33.4133 -84.5092 142° Southeast 291 335 11,200  Level Atlanta Center
Sat 12:45:00 PM 33.2750 -83.8233 165° South  Level FlightAware Approximate
Sat 12:45:55 PM 33.3469 -84.4192 131° Southeast 334 384 13,200  Level Atlanta Center
Sat 12:46:00 PM 33.2262 -83.7078 97° East  Level Estimated
Sat 12:46:55 PM 33.2867 -84.3197 126° Southeast 370 426 15,500  Level Atlanta Center
Sat 12:47:55 PM 33.2222 -84.2125 126° Southeast 395 455 17,300 1,800 Climbing Atlanta Center
Sat 12:48:55 PM 33.1556 -84.1083 127° Southeast 402 463 19,100 1,700 Climbing Atlanta Center
Sat 12:49:55 PM 33.0719 -84.0189 138° Southeast 402 463 20,700 1,450 Climbing Atlanta Center
Sat 12:50:55 PM 32.9864 -83.9297 139° Southeast 407 468 22,000 1,150 Climbing Atlanta Center
Sat 12:51:55 PM 32.8903 -83.8458 144° Southeast 420 483 23,000 500 Climbing Atlanta Center
Sat 12:52:55 PM 32.7878 -83.7669 147° Southeast 433 498 23,000  Level Atlanta Center
Sat 12:53:55 PM 32.7000 -83.6489 131° Southeast 447 514 23,000  Level Atlanta Center
Sat 12:54:55 PM 32.6556 -83.5011 110° East 463 533 23,000  Level Atlanta Center
Sat 12:56:00 PM 32.6546 -83.4059 100° East  Level FlightAware Approximate
Sat 01:03:00 PM 32.5485 -82.8091 103° East  Level FlightAware Approximate
Sat 01:04:00 PM 32.5315 -82.7241 103° East  Level FlightAware Approximate
Sat 01:05:00 PM 32.5095 -82.6428 140° Southeast  Level FlightAware Approximate
Sat 01:06:00 PM 32.4822 -82.5638 107° East  Level FlightAware Approximate
Sat 01:07:00 PM 32.4608 -82.4803 107° East  Level FlightAware Approximate
Sat 01:08:00 PM 32.4393 -82.3968 107° East  Level FlightAware Approximate
Sat 01:09:00 PM 32.4177 -82.3133 107° East  Level FlightAware Approximate
Sat 01:10:00 PM 32.3961 -82.2299 107° East  Level FlightAware Approximate
Sat 01:11:00 PM 32.3745 -82.1466 107° East  Level FlightAware Approximate
Sat 01:12:00 PM 32.3573 -82.0623 106° East  Level FlightAware Approximate
Sat 01:13:00 PM 32.3364 -81.9787 106° East  Level FlightAware Approximate
Sat 01:14:00 PM 32.3154 -81.8951 106° East  Level FlightAware Approximate
Sat 01:15:00 PM 32.2946 -81.8116 106° East  Level FlightAware Approximate
Sat 01:16:00 PM 32.2709 -81.7292 111° Southeast  Level FlightAware Approximate
Sat 01:17:00 PM 32.2452 -81.6476 106° East  Level FlightAware Approximate
Sat 01:18:00 PM 32.2244 -81.5640 106° East  Level FlightAware Approximate
Sat 01:19:00 PM 32.2035 -81.4806 106° East  Level FlightAware Approximate
Sat 01:20:00 PM 32.1752 -81.4005 121° Southeast  Level FlightAware Approximate
Sat 01:21:00 PM 32.1546 -81.3183 106° East  Level FlightAware Approximate
Sat 01:22:00 PM 32.1315 -81.2370 115° Southeast  Level FlightAware Approximate
Sat 01:23:00 PM 32.1167 -81.2000 North  Level FlightAware Approximate
Sat 01:24:00 PM 32.1276 -81.2021 North  Level Estimated
Sat 01:25:00 PM 32.1276 -81.2021 North  Level Estimated

Login

Don't have an account? Register now (free) for customized features, flight alerts, and more!